This is the latest recevied weather packets stored in our database for station/object DK6GC-10. If no packets are shown the sender has not sent any weather packets the latest 10 day(s).
| Time | Temp. | Humidity | Pressure | Rain* | Wind** | Luminosity | Snow |
|---|---|---|---|---|---|---|---|
| 1777660217 | 17.78° C | 39% | 1022.2 hPa | - | - | - | - |
| 1777659316 | 18.33° C | 39% | 1022.2 hPa | - | - | - | - |
| 1777658420 | 18.89° C | 37% | 1022.1 hPa | - | - | - | - |
| 1777657520 | 20° C | 34% | 1022.1 hPa | - | - | - | - |
| 1777656620 | 20.56° C | 32% | 1022 hPa | - | - | - | - |
| 1777655719 | 21.11° C | 29% | 1022 hPa | - | - | - | - |
| 1777654819 | 22.22° C | 26% | 1021.9 hPa | - | - | - | - |
| 1777653919 | 22.78° C | 26% | 1021.9 hPa | - | - | - | - |
| 1777653019 | 22.78° C | 27% | 1022.1 hPa | - | - | - | - |
| 1777652119 | 23.33° C | 27% | 1022.2 hPa | - | - | - | - |
| 1777651219 | 23.89° C | 26% | 1022.2 hPa | - | - | - | - |
| 1777650318 | 23.89° C | 26% | 1022.4 hPa | - | - | - | - |
| 1777649418 | 24.44° C | 25% | 1022.6 hPa | - | - | - | - |
| 1777648518 | 25° C | 25% | 1022.8 hPa | - | - | - | - |
| 1777647618 | 25° C | 23% | 1022.8 hPa | - | - | - | - |
| 1777646718 | 25° C | 25% | 1023 hPa | - | - | - | - |
| 1777645818 | 25° C | 25% | 1023.2 hPa | - | - | - | - |
| 1777644918 | 25° C | 26% | 1023.4 hPa | - | - | - | - |
| 1777644017 | 25° C | 24% | 1023.5 hPa | - | - | - | - |
| 1777643117 | 25° C | 23% | 1023.7 hPa | - | - | - | - |
| 1777642217 | 24.44° C | 24% | 1023.7 hPa | - | - | - | - |
| 1777641317 | 24.44° C | 26% | 1023.9 hPa | - | - | - | - |
| 1777640417 | 24.44° C | 27% | 1024.1 hPa | - | - | - | - |
| 1777639516 | 23.33° C | 24% | 1024.2 hPa | - | - | - | - |
| 1777638616 | 23.33° C | 27% | 1024.4 hPa | - | - | - | - |
* Rain since midnight (hover to see other rain measurements)
** Current wind speed in m/s (hover to see current wind gust speed)